sensor_id;sensor_type;location;lat;lon;timestamp;temperature;humidity
5796;DHT22;2924;51.458;7.046;2022-09-09T00:04:18;13.80;99.90
5796;DHT22;2924;51.458;7.046;2022-09-09T00:07:01;13.80;99.90
5796;DHT22;2924;51.458;7.046;2022-09-09T00:09:31;13.80;99.90
5796;DHT22;2924;51.458;7.046;2022-09-09T00:12:10;13.90;99.90
5796;DHT22;2924;51.458;7.046;2022-09-09T00:14:55;13.80;99.90
5796;DHT22;2924;51.458;7.046;2022-09-09T00:20:03;13.80;99.90
5796;DHT22;2924;51.458;7.046;2022-09-09T00:22:36;13.80;99.90
5796;DHT22;2924;51.458;7.046;2022-09-09T00:25:12;13.80;99.90
5796;DHT22;2924;51.458;7.046;2022-09-09T00:27:46;13.80;99.90
5796;DHT22;2924;51.458;7.046;2022-09-09T00:30:19;13.70;99.90
5796;DHT22;2924;51.458;7.046;2022-09-09T00:35:52;13.70;99.90
5796;DHT22;2924;51.458;7.046;2022-09-09T00:38:42;13.70;99.90
5796;DHT22;2924;51.458;7.046;2022-09-09T00:47:38;13.50;99.90
5796;DHT22;2924;51.458;7.046;2022-09-09T00:58:33;13.60;99.90
5796;DHT22;2924;51.458;7.046;2022-09-09T01:01:09;13.60;99.90
5796;DHT22;2924;51.458;7.046;2022-09-09T01:03:52;13.70;99.90
5796;DHT22;2924;51.458;7.046;2022-09-09T01:09:32;13.80;99.90
5796;DHT22;2924;51.458;7.046;2022-09-09T01:12:15;13.80;99.90
5796;DHT22;2924;51.458;7.046;2022-09-09T01:14:45;13.80;99.90
5796;DHT22;2924;51.458;7.046;2022-09-09T01:17:19;13.90;99.90
5796;DHT22;2924;51.458;7.046;2022-09-09T01:20:03;13.80;99.90
5796;DHT22;2924;51.458;7.046;2022-09-09T01:22:44;13.80;99.90
5796;DHT22;2924;51.458;7.046;2022-09-09T01:25:29;13.80;99.90
5796;DHT22;2924;51.458;7.046;2022-09-09T01:28:04;13.70;99.90
5796;DHT22;2924;51.458;7.046;2022-09-09T01:30:34;13.80;99.90
5796;DHT22;2924;51.458;7.046;2022-09-09T01:33:00;13.70;99.90
5796;DHT22;2924;51.458;7.046;2022-09-09T01:35:48;13.70;99.90
5796;DHT22;2924;51.458;7.046;2022-09-09T01:38:16;13.70;99.90
5796;DHT22;2924;51.458;7.046;2022-09-09T01:40:43;13.80;99.90
5796;DHT22;2924;51.458;7.046;2022-09-09T01:43:09;13.80;99.90
5796;DHT22;2924;51.458;7.046;2022-09-09T01:45:35;13.80;99.90
5796;DHT22;2924;51.458;7.046;2022-09-09T01:48:01;13.80;99.90
5796;DHT22;2924;51.458;7.046;2022-09-09T01:50:28;13.80;99.90
5796;DHT22;2924;51.458;7.046;2022-09-09T01:52:57;13.80;99.90
5796;DHT22;2924;51.458;7.046;2022-09-09T01:55:33;13.80;99.90
5796;DHT22;2924;51.458;7.046;2022-09-09T02:01:00;13.80;99.90
5796;DHT22;2924;51.458;7.046;2022-09-09T02:03:28;13.70;99.90
5796;DHT22;2924;51.458;7.046;2022-09-09T02:06:13;13.70;99.90
5796;DHT22;2924;51.458;7.046;2022-09-09T02:08:52;13.70;99.90
5796;DHT22;2924;51.458;7.046;2022-09-09T02:11:20;13.70;99.90
5796;DHT22;2924;51.458;7.046;2022-09-09T02:13:48;13.70;99.90
5796;DHT22;2924;51.458;7.046;2022-09-09T02:16:25;13.70;99.90
5796;DHT22;2924;51.458;7.046;2022-09-09T02:19:07;13.70;99.90
5796;DHT22;2924;51.458;7.046;2022-09-09T02:21:34;13.70;99.90
5796;DHT22;2924;51.458;7.046;2022-09-09T02:24:06;13.70;99.90
5796;DHT22;2924;51.458;7.046;2022-09-09T02:26:37;13.80;99.90
5796;DHT22;2924;51.458;7.046;2022-09-09T02:29:12;13.80;99.90
5796;DHT22;2924;51.458;7.046;2022-09-09T02:31:41;13.80;99.90
5796;DHT22;2924;51.458;7.046;2022-09-09T02:34:10;13.90;99.90
5796;DHT22;2924;51.458;7.046;2022-09-09T02:36:37;14.00;99.90
5796;DHT22;2924;51.458;7.046;2022-09-09T02:39:06;14.00;99.90
5796;DHT22;2924;51.458;7.046;2022-09-09T02:41:35;14.00;99.90
5796;DHT22;2924;51.458;7.046;2022-09-09T02:44:05;14.10;99.90
5796;DHT22;2924;51.458;7.046;2022-09-09T02:50:08;14.20;99.90
5796;DHT22;2924;51.458;7.046;2022-09-09T02:57:53;14.30;99.90
5796;DHT22;2924;51.458;7.046;2022-09-09T03:00:25;14.30;99.90
5796;DHT22;2924;51.458;7.046;2022-09-09T03:02:52;14.30;99.90
5796;DHT22;2924;51.458;7.046;2022-09-09T03:05:20;14.40;99.90
5796;DHT22;2924;51.458;7.046;2022-09-09T03:07:46;14.40;99.90
5796;DHT22;2924;51.458;7.046;2022-09-09T03:10:12;14.40;99.90
5796;DHT22;2924;51.458;7.046;2022-09-09T03:12:37;14.40;99.90
5796;DHT22;2924;51.458;7.046;2022-09-09T03:15:05;14.40;99.90
5796;DHT22;2924;51.458;7.046;2022-09-09T03:17:30;14.40;99.90
5796;DHT22;2924;51.458;7.046;2022-09-09T03:19:56;14.50;99.90
5796;DHT22;2924;51.458;7.046;2022-09-09T03:22:23;14.40;99.90
5796;DHT22;2924;51.458;7.046;2022-09-09T03:24:48;14.40;99.90
5796;DHT22;2924;51.458;7.046;2022-09-09T03:27:14;14.40;99.90
5796;DHT22;2924;51.458;7.046;2022-09-09T03:29:40;14.40;99.90
5796;DHT22;2924;51.458;7.046;2022-09-09T03:32:06;14.40;99.90
5796;DHT22;2924;51.458;7.046;2022-09-09T03:34:31;14.30;99.90
5796;DHT22;2924;51.458;7.046;2022-09-09T03:36:57;14.30;99.90
5796;DHT22;2924;51.458;7.046;2022-09-09T03:39:23;14.30;99.90
5796;DHT22;2924;51.458;7.046;2022-09-09T03:41:49;14.30;99.90
5796;DHT22;2924;51.458;7.046;2022-09-09T03:44:14;14.30;99.90
5796;DHT22;2924;51.458;7.046;2022-09-09T03:46:40;14.20;99.90
5796;DHT22;2924;51.458;7.046;2022-09-09T03:49:06;14.20;99.90
5796;DHT22;2924;51.458;7.046;2022-09-09T03:51:31;14.30;99.90
5796;DHT22;2924;51.458;7.046;2022-09-09T03:53:59;14.30;99.90
5796;DHT22;2924;51.458;7.046;2022-09-09T03:56:26;14.40;99.90
5796;DHT22;2924;51.458;7.046;2022-09-09T03:58:51;14.40;99.90
5796;DHT22;2924;51.458;7.046;2022-09-09T04:01:17;14.40;99.90
5796;DHT22;2924;51.458;7.046;2022-09-09T04:03:43;14.40;99.90
5796;DHT22;2924;51.458;7.046;2022-09-09T04:06:11;14.50;99.90
5796;DHT22;2924;51.458;7.046;2022-09-09T04:08:39;14.50;99.90
5796;DHT22;2924;51.458;7.046;2022-09-09T04:11:05;14.50;99.90
5796;DHT22;2924;51.458;7.046;2022-09-09T04:13:33;14.50;99.90
5796;DHT22;2924;51.458;7.046;2022-09-09T04:16:00;14.40;99.90
5796;DHT22;2924;51.458;7.046;2022-09-09T04:18:26;14.40;99.90
5796;DHT22;2924;51.458;7.046;2022-09-09T04:20:54;14.50;99.90
5796;DHT22;2924;51.458;7.046;2022-09-09T04:23:23;14.40;99.90
5796;DHT22;2924;51.458;7.046;2022-09-09T04:25:53;14.30;99.90
5796;DHT22;2924;51.458;7.046;2022-09-09T04:28:20;14.30;99.90
5796;DHT22;2924;51.458;7.046;2022-09-09T04:30:47;14.30;99.90
5796;DHT22;2924;51.458;7.046;2022-09-09T04:33:14;14.20;99.90
5796;DHT22;2924;51.458;7.046;2022-09-09T04:35:48;14.20;99.90
5796;DHT22;2924;51.458;7.046;2022-09-09T04:38:14;14.20;99.90
5796;DHT22;2924;51.458;7.046;2022-09-09T04:40:46;14.10;99.90
5796;DHT22;2924;51.458;7.046;2022-09-09T04:43:11;14.10;99.90
5796;DHT22;2924;51.458;7.046;2022-09-09T04:45:37;14.10;99.90
5796;DHT22;2924;51.458;7.046;2022-09-09T04:48:04;14.10;99.90
5796;DHT22;2924;51.458;7.046;2022-09-09T04:50:30;14.10;99.90
5796;DHT22;2924;51.458;7.046;2022-09-09T04:53:00;14.10;99.90
5796;DHT22;2924;51.458;7.046;2022-09-09T04:55:26;14.20;99.90
5796;DHT22;2924;51.458;7.046;2022-09-09T04:57:51;14.30;99.90
5796;DHT22;2924;51.458;7.046;2022-09-09T05:00:17;14.40;99.90
5796;DHT22;2924;51.458;7.046;2022-09-09T05:02:44;14.50;99.90
5796;DHT22;2924;51.458;7.046;2022-09-09T05:05:10;14.40;99.90
5796;DHT22;2924;51.458;7.046;2022-09-09T05:07:36;14.50;99.90
5796;DHT22;2924;51.458;7.046;2022-09-09T05:10:02;14.60;99.90
5796;DHT22;2924;51.458;7.046;2022-09-09T05:12:30;14.60;99.90
5796;DHT22;2924;51.458;7.046;2022-09-09T05:14:56;14.60;99.90
5796;DHT22;2924;51.458;7.046;2022-09-09T05:17:23;14.60;99.90
5796;DHT22;2924;51.458;7.046;2022-09-09T05:19:48;14.60;99.90
5796;DHT22;2924;51.458;7.046;2022-09-09T05:22:19;14.70;99.90
5796;DHT22;2924;51.458;7.046;2022-09-09T05:24:45;14.70;99.90
5796;DHT22;2924;51.458;7.046;2022-09-09T05:27:11;14.70;99.90
5796;DHT22;2924;51.458;7.046;2022-09-09T05:29:38;14.80;99.90
5796;DHT22;2924;51.458;7.046;2022-09-09T05:32:04;14.90;99.90
5796;DHT22;2924;51.458;7.046;2022-09-09T05:34:30;14.80;99.90
5796;DHT22;2924;51.458;7.046;2022-09-09T05:36:55;14.90;99.90
5796;DHT22;2924;51.458;7.046;2022-09-09T05:39:21;15.00;99.90
5796;DHT22;2924;51.458;7.046;2022-09-09T05:41:47;15.10;99.90
5796;DHT22;2924;51.458;7.046;2022-09-09T05:44:12;15.10;99.90
5796;DHT22;2924;51.458;7.046;2022-09-09T05:46:39;15.20;99.90
5796;DHT22;2924;51.458;7.046;2022-09-09T05:49:05;15.20;99.90
5796;DHT22;2924;51.458;7.046;2022-09-09T05:51:31;15.30;99.90
5796;DHT22;2924;51.458;7.046;2022-09-09T05:53:57;15.40;99.90
5796;DHT22;2924;51.458;7.046;2022-09-09T05:56:28;15.40;99.90
5796;DHT22;2924;51.458;7.046;2022-09-09T05:58:55;15.50;99.90
5796;DHT22;2924;51.458;7.046;2022-09-09T06:01:26;15.50;99.90
5796;DHT22;2924;51.458;7.046;2022-09-09T06:03:52;15.50;99.90
5796;DHT22;2924;51.458;7.046;2022-09-09T06:06:27;15.60;99.90
5796;DHT22;2924;51.458;7.046;2022-09-09T06:08:54;15.60;99.90
5796;DHT22;2924;51.458;7.046;2022-09-09T06:11:31;15.60;99.90
5796;DHT22;2924;51.458;7.046;2022-09-09T06:13:57;15.70;99.90
5796;DHT22;2924;51.458;7.046;2022-09-09T06:16:25;15.70;99.90
5796;DHT22;2924;51.458;7.046;2022-09-09T06:18:52;15.80;99.90
5796;DHT22;2924;51.458;7.046;2022-09-09T06:21:21;15.90;99.90
5796;DHT22;2924;51.458;7.046;2022-09-09T06:23:48;15.90;99.90
5796;DHT22;2924;51.458;7.046;2022-09-09T06:26:15;16.00;99.90
5796;DHT22;2924;51.458;7.046;2022-09-09T06:28:44;16.00;99.90
5796;DHT22;2924;51.458;7.046;2022-09-09T06:31:12;16.10;99.90
5796;DHT22;2924;51.458;7.046;2022-09-09T06:33:39;16.20;99.90
5796;DHT22;2924;51.458;7.046;2022-09-09T06:36:11;16.30;99.90
5796;DHT22;2924;51.458;7.046;2022-09-09T06:38:37;16.40;99.90
5796;DHT22;2924;51.458;7.046;2022-09-09T06:41:03;16.60;99.90
5796;DHT22;2924;51.458;7.046;2022-09-09T06:43:31;16.80;99.90
5796;DHT22;2924;51.458;7.046;2022-09-09T06:46:03;16.90;99.90
5796;DHT22;2924;51.458;7.046;2022-09-09T06:48:29;16.90;99.90
5796;DHT22;2924;51.458;7.046;2022-09-09T06:51:06;16.80;99.90
5796;DHT22;2924;51.458;7.046;2022-09-09T06:53:33;16.80;99.90
5796;DHT22;2924;51.458;7.046;2022-09-09T06:56:01;16.80;99.90
5796;DHT22;2924;51.458;7.046;2022-09-09T06:58:28;16.80;99.90
5796;DHT22;2924;51.458;7.046;2022-09-09T07:01:05;16.90;99.90
5796;DHT22;2924;51.458;7.046;2022-09-09T07:03:31;16.90;99.90
5796;DHT22;2924;51.458;7.046;2022-09-09T07:05:58;16.90;99.90
5796;DHT22;2924;51.458;7.046;2022-09-09T07:08:24;17.10;99.90
5796;DHT22;2924;51.458;7.046;2022-09-09T07:10:51;17.40;99.90
5796;DHT22;2924;51.458;7.046;2022-09-09T07:13:28;17.90;99.90
5796;DHT22;2924;51.458;7.046;2022-09-09T07:15:54;18.50;99.90
5796;DHT22;2924;51.458;7.046;2022-09-09T07:18:20;18.70;99.90
5796;DHT22;2924;51.458;7.046;2022-09-09T07:20:55;18.50;99.90
5796;DHT22;2924;51.458;7.046;2022-09-09T07:23:22;18.20;99.90
5796;DHT22;2924;51.458;7.046;2022-09-09T07:25:48;17.90;99.90
5796;DHT22;2924;51.458;7.046;2022-09-09T07:28:14;17.60;99.90
5796;DHT22;2924;51.458;7.046;2022-09-09T07:30:40;17.40;99.90
5796;DHT22;2924;51.458;7.046;2022-09-09T07:33:06;17.50;99.90
5796;DHT22;2924;51.458;7.046;2022-09-09T07:35:32;17.60;99.90
5796;DHT22;2924;51.458;7.046;2022-09-09T07:38:00;18.30;99.90
5796;DHT22;2924;51.458;7.046;2022-09-09T07:40:26;19.20;99.90
5796;DHT22;2924;51.458;7.046;2022-09-09T07:42:51;19.90;99.90
5796;DHT22;2924;51.458;7.046;2022-09-09T07:45:17;20.60;99.90
5796;DHT22;2924;51.458;7.046;2022-09-09T07:47:43;20.80;99.90
5796;DHT22;2924;51.458;7.046;2022-09-09T07:50:09;20.90;99.90
5796;DHT22;2924;51.458;7.046;2022-09-09T07:52:35;21.10;99.90
5796;DHT22;2924;51.458;7.046;2022-09-09T07:55:02;21.50;99.90
5796;DHT22;2924;51.458;7.046;2022-09-09T07:57:30;21.60;99.90
5796;DHT22;2924;51.458;7.046;2022-09-09T07:59:57;21.50;99.90
5796;DHT22;2924;51.458;7.046;2022-09-09T08:02:24;21.60;99.90
5796;DHT22;2924;51.458;7.046;2022-09-09T08:04:51;21.40;99.90
5796;DHT22;2924;51.458;7.046;2022-09-09T08:07:17;21.20;99.90
5796;DHT22;2924;51.458;7.046;2022-09-09T08:09:43;21.00;99.90
5796;DHT22;2924;51.458;7.046;2022-09-09T08:12:09;20.80;99.90
5796;DHT22;2924;51.458;7.046;2022-09-09T08:14:36;21.00;99.90
5796;DHT22;2924;51.458;7.046;2022-09-09T08:17:02;20.70;99.90
5796;DHT22;2924;51.458;7.046;2022-09-09T08:19:28;20.50;99.90
5796;DHT22;2924;51.458;7.046;2022-09-09T08:21:59;20.40;99.90
5796;DHT22;2924;51.458;7.046;2022-09-09T08:24:27;20.20;99.90
5796;DHT22;2924;51.458;7.046;2022-09-09T08:26:53;19.80;99.90
5796;DHT22;2924;51.458;7.046;2022-09-09T08:29:19;19.50;99.90
5796;DHT22;2924;51.458;7.046;2022-09-09T08:31:50;19.10;99.90
5796;DHT22;2924;51.458;7.046;2022-09-09T08:34:17;19.30;99.90
5796;DHT22;2924;51.458;7.046;2022-09-09T08:36:46;19.90;99.90
5796;DHT22;2924;51.458;7.046;2022-09-09T08:39:16;20.20;99.90
5796;DHT22;2924;51.458;7.046;2022-09-09T08:55:50;20.60;99.90
5796;DHT22;2924;51.458;7.046;2022-09-09T08:58:21;21.10;99.90
5796;DHT22;2924;51.458;7.046;2022-09-09T09:12:01;22.00;99.90
5796;DHT22;2924;51.458;7.046;2022-09-09T09:14:33;22.20;99.90
5796;DHT22;2924;51.458;7.046;2022-09-09T09:17:31;21.90;99.90
5796;DHT22;2924;51.458;7.046;2022-09-09T09:19:58;22.20;99.90
5796;DHT22;2924;51.458;7.046;2022-09-09T09:22:37;22.10;99.90
5796;DHT22;2924;51.458;7.046;2022-09-09T09:25:21;22.10;99.90
5796;DHT22;2924;51.458;7.046;2022-09-09T09:28:11;22.10;99.90
5796;DHT22;2924;51.458;7.046;2022-09-09T09:30:42;21.90;99.90
5796;DHT22;2924;51.458;7.046;2022-09-09T09:33:34;21.50;99.90
5796;DHT22;2924;51.458;7.046;2022-09-09T09:36:01;21.50;99.90
5796;DHT22;2924;51.458;7.046;2022-09-09T09:38:28;21.40;99.90
5796;DHT22;2924;51.458;7.046;2022-09-09T09:40:56;21.40;99.90
5796;DHT22;2924;51.458;7.046;2022-09-09T09:43:36;21.50;99.90
5796;DHT22;2924;51.458;7.046;2022-09-09T09:46:16;21.40;99.90
5796;DHT22;2924;51.458;7.046;2022-09-09T09:48:43;21.50;99.90
5796;DHT22;2924;51.458;7.046;2022-09-09T09:51:13;21.60;99.90
5796;DHT22;2924;51.458;7.046;2022-09-09T09:53:41;21.70;99.90
5796;DHT22;2924;51.458;7.046;2022-09-09T09:56:13;21.80;99.90
5796;DHT22;2924;51.458;7.046;2022-09-09T10:01:32;21.40;99.90
5796;DHT22;2924;51.458;7.046;2022-09-09T10:04:23;20.80;99.90
5796;DHT22;2924;51.458;7.046;2022-09-09T10:06:50;20.50;99.90
5796;DHT22;2924;51.458;7.046;2022-09-09T10:20:54;20.00;99.90
5796;DHT22;2924;51.458;7.046;2022-09-09T10:29:27;21.00;99.90
5796;DHT22;2924;51.458;7.046;2022-09-09T10:34:58;21.80;99.90
5796;DHT22;2924;51.458;7.046;2022-09-09T10:40:32;21.20;99.90
5796;DHT22;2924;51.458;7.046;2022-09-09T10:52:15;21.60;99.90
5796;DHT22;2924;51.458;7.046;2022-09-09T10:54:55;21.70;99.90
5796;DHT22;2924;51.458;7.046;2022-09-09T10:57:31;21.70;99.90
5796;DHT22;2924;51.458;7.046;2022-09-09T11:00:06;21.80;99.90
5796;DHT22;2924;51.458;7.046;2022-09-09T11:02:34;21.70;99.90
5796;DHT22;2924;51.458;7.046;2022-09-09T11:05:53;21.40;99.90
5796;DHT22;2924;51.458;7.046;2022-09-09T11:19:47;20.00;99.90
5796;DHT22;2924;51.458;7.046;2022-09-09T11:25:09;19.80;99.90
5796;DHT22;2924;51.458;7.046;2022-09-09T11:38:45;22.10;99.90
5796;DHT22;2924;51.458;7.046;2022-09-09T11:41:17;22.20;99.90
5796;DHT22;2924;51.458;7.046;2022-09-09T11:43:52;22.00;99.90
5796;DHT22;2924;51.458;7.046;2022-09-09T11:46:21;21.80;99.90
5796;DHT22;2924;51.458;7.046;2022-09-09T11:49:00;21.90;99.90
5796;DHT22;2924;51.458;7.046;2022-09-09T11:51:28;21.80;99.90
5796;DHT22;2924;51.458;7.046;2022-09-09T11:53:59;21.80;99.90
5796;DHT22;2924;51.458;7.046;2022-09-09T11:59:03;21.10;99.90
5796;DHT22;2924;51.458;7.046;2022-09-09T12:01:35;20.60;99.90
5796;DHT22;2924;51.458;7.046;2022-09-09T12:04:17;19.70;99.90
5796;DHT22;2924;51.458;7.046;2022-09-09T12:06:46;19.10;99.90
5796;DHT22;2924;51.458;7.046;2022-09-09T12:09:41;18.70;99.90
5796;DHT22;2924;51.458;7.046;2022-09-09T12:17:20;18.90;99.90
5796;DHT22;2924;51.458;7.046;2022-09-09T12:19:48;19.30;99.90
5796;DHT22;2924;51.458;7.046;2022-09-09T12:28:17;20.50;99.90
5796;DHT22;2924;51.458;7.046;2022-09-09T12:31:02;20.70;99.90
5796;DHT22;2924;51.458;7.046;2022-09-09T12:33:36;20.60;99.90
5796;DHT22;2924;51.458;7.046;2022-09-09T12:36:03;20.50;99.90
5796;DHT22;2924;51.458;7.046;2022-09-09T12:38:37;20.40;99.90
5796;DHT22;2924;51.458;7.046;2022-09-09T12:41:04;20.20;99.90
5796;DHT22;2924;51.458;7.046;2022-09-09T12:43:30;20.30;99.90
5796;DHT22;2924;51.458;7.046;2022-09-09T12:46:09;20.20;99.90
5796;DHT22;2924;51.458;7.046;2022-09-09T12:48:40;20.10;99.90
5796;DHT22;2924;51.458;7.046;2022-09-09T12:51:24;20.00;99.90
5796;DHT22;2924;51.458;7.046;2022-09-09T12:53:51;20.10;99.90
5796;DHT22;2924;51.458;7.046;2022-09-09T12:56:29;20.60;99.90
5796;DHT22;2924;51.458;7.046;2022-09-09T12:58:56;20.90;99.90
5796;DHT22;2924;51.458;7.046;2022-09-09T13:01:27;21.30;99.90
5796;DHT22;2924;51.458;7.046;2022-09-09T13:03:54;21.40;99.90
5796;DHT22;2924;51.458;7.046;2022-09-09T13:06:26;21.50;99.90
5796;DHT22;2924;51.458;7.046;2022-09-09T13:08:53;21.30;99.90
5796;DHT22;2924;51.458;7.046;2022-09-09T13:11:39;21.10;99.90
5796;DHT22;2924;51.458;7.046;2022-09-09T13:14:29;20.80;99.90
5796;DHT22;2924;51.458;7.046;2022-09-09T13:17:00;20.40;99.90
5796;DHT22;2924;51.458;7.046;2022-09-09T13:19:29;19.70;99.90
5796;DHT22;2924;51.458;7.046;2022-09-09T13:21:57;19.00;99.90
5796;DHT22;2924;51.458;7.046;2022-09-09T13:24:31;18.50;99.90
5796;DHT22;2924;51.458;7.046;2022-09-09T13:29:52;18.10;99.90
5796;DHT22;2924;51.458;7.046;2022-09-09T13:32:23;17.90;99.90
5796;DHT22;2924;51.458;7.046;2022-09-09T13:34:58;17.80;99.90
5796;DHT22;2924;51.458;7.046;2022-09-09T13:37:34;17.90;99.90
5796;DHT22;2924;51.458;7.046;2022-09-09T13:40:01;18.00;99.90
5796;DHT22;2924;51.458;7.046;2022-09-09T13:42:33;18.20;99.90
5796;DHT22;2924;51.458;7.046;2022-09-09T13:45:00;18.20;99.90
5796;DHT22;2924;51.458;7.046;2022-09-09T13:47:35;18.20;99.90
5796;DHT22;2924;51.458;7.046;2022-09-09T13:50:20;18.10;99.90
5796;DHT22;2924;51.458;7.046;2022-09-09T13:52:47;17.90;99.90
5796;DHT22;2924;51.458;7.046;2022-09-09T13:55:14;17.80;99.90
5796;DHT22;2924;51.458;7.046;2022-09-09T13:57:53;17.70;99.90
5796;DHT22;2924;51.458;7.046;2022-09-09T14:00:20;17.80;99.90
5796;DHT22;2924;51.458;7.046;2022-09-09T14:02:47;18.00;99.90
5796;DHT22;2924;51.458;7.046;2022-09-09T14:05:13;18.40;99.90
5796;DHT22;2924;51.458;7.046;2022-09-09T14:07:42;18.60;99.90
5796;DHT22;2924;51.458;7.046;2022-09-09T14:10:08;18.80;99.90
5796;DHT22;2924;51.458;7.046;2022-09-09T14:12:34;19.10;99.90
5796;DHT22;2924;51.458;7.046;2022-09-09T14:15:00;19.50;99.90
5796;DHT22;2924;51.458;7.046;2022-09-09T14:17:26;19.80;99.90
5796;DHT22;2924;51.458;7.046;2022-09-09T14:19:55;20.00;99.90
5796;DHT22;2924;51.458;7.046;2022-09-09T14:22:21;20.00;99.90
5796;DHT22;2924;51.458;7.046;2022-09-09T14:24:48;19.90;99.90
5796;DHT22;2924;51.458;7.046;2022-09-09T14:27:14;19.60;99.90
5796;DHT22;2924;51.458;7.046;2022-09-09T14:29:39;19.30;99.90
5796;DHT22;2924;51.458;7.046;2022-09-09T14:32:05;19.10;99.90
5796;DHT22;2924;51.458;7.046;2022-09-09T14:34:31;19.10;99.90
5796;DHT22;2924;51.458;7.046;2022-09-09T14:36:58;18.80;99.90
5796;DHT22;2924;51.458;7.046;2022-09-09T14:39:24;18.70;99.90
5796;DHT22;2924;51.458;7.046;2022-09-09T14:41:49;18.40;99.90
5796;DHT22;2924;51.458;7.046;2022-09-09T14:44:15;18.20;99.90
5796;DHT22;2924;51.458;7.046;2022-09-09T14:46:44;18.10;99.90
5796;DHT22;2924;51.458;7.046;2022-09-09T14:49:10;17.90;99.90
5796;DHT22;2924;51.458;7.046;2022-09-09T14:51:36;18.20;99.90
5796;DHT22;2924;51.458;7.046;2022-09-09T14:54:02;18.50;99.90
5796;DHT22;2924;51.458;7.046;2022-09-09T14:56:30;18.50;99.90
5796;DHT22;2924;51.458;7.046;2022-09-09T14:58:58;18.40;99.90
5796;DHT22;2924;51.458;7.046;2022-09-09T15:01:24;18.30;99.90
5796;DHT22;2924;51.458;7.046;2022-09-09T15:04:00;18.20;99.90
5796;DHT22;2924;51.458;7.046;2022-09-09T15:06:28;18.00;99.90
5796;DHT22;2924;51.458;7.046;2022-09-09T15:08:55;17.30;99.90
5796;DHT22;2924;51.458;7.046;2022-09-09T15:11:23;16.70;99.90
5796;DHT22;2924;51.458;7.046;2022-09-09T15:13:51;16.20;99.90
5796;DHT22;2924;51.458;7.046;2022-09-09T15:16:21;15.70;99.90
5796;DHT22;2924;51.458;7.046;2022-09-09T15:18:51;15.40;99.90
5796;DHT22;2924;51.458;7.046;2022-09-09T15:21:20;15.10;99.90
5796;DHT22;2924;51.458;7.046;2022-09-09T15:23:46;14.90;99.90
5796;DHT22;2924;51.458;7.046;2022-09-09T15:26:13;14.80;99.90
5796;DHT22;2924;51.458;7.046;2022-09-09T15:28:43;14.80;99.90
5796;DHT22;2924;51.458;7.046;2022-09-09T15:33:47;14.80;99.90
5796;DHT22;2924;51.458;7.046;2022-09-09T15:36:22;14.90;99.90
5796;DHT22;2924;51.458;7.046;2022-09-09T15:38:48;14.90;99.90
5796;DHT22;2924;51.458;7.046;2022-09-09T15:41:15;14.90;99.90
5796;DHT22;2924;51.458;7.046;2022-09-09T15:43:46;14.90;99.90
5796;DHT22;2924;51.458;7.046;2022-09-09T15:46:34;14.90;99.90
5796;DHT22;2924;51.458;7.046;2022-09-09T15:49:16;14.80;99.90
5796;DHT22;2924;51.458;7.046;2022-09-09T15:51:52;14.80;99.90
5796;DHT22;2924;51.458;7.046;2022-09-09T15:54:21;14.80;99.90
5796;DHT22;2924;51.458;7.046;2022-09-09T15:56:52;14.80;99.90
5796;DHT22;2924;51.458;7.046;2022-09-09T15:59:20;14.80;99.90
5796;DHT22;2924;51.458;7.046;2022-09-09T16:01:46;14.90;99.90
5796;DHT22;2924;51.458;7.046;2022-09-09T16:04:11;14.90;99.90
5796;DHT22;2924;51.458;7.046;2022-09-09T16:06:37;15.00;99.90
5796;DHT22;2924;51.458;7.046;2022-09-09T16:09:05;14.90;99.90
5796;DHT22;2924;51.458;7.046;2022-09-09T16:11:34;15.00;99.90
5796;DHT22;2924;51.458;7.046;2022-09-09T16:14:00;15.00;99.90
5796;DHT22;2924;51.458;7.046;2022-09-09T16:16:28;15.00;99.90
5796;DHT22;2924;51.458;7.046;2022-09-09T16:18:56;15.10;99.90
5796;DHT22;2924;51.458;7.046;2022-09-09T16:21:25;15.10;99.90
5796;DHT22;2924;51.458;7.046;2022-09-09T16:23:52;15.20;99.90
5796;DHT22;2924;51.458;7.046;2022-09-09T16:26:22;15.30;99.90
5796;DHT22;2924;51.458;7.046;2022-09-09T16:28:49;15.40;99.90
5796;DHT22;2924;51.458;7.046;2022-09-09T16:31:17;15.50;99.90
5796;DHT22;2924;51.458;7.046;2022-09-09T16:33:44;15.60;99.90
5796;DHT22;2924;51.458;7.046;2022-09-09T16:36:12;15.60;99.90
5796;DHT22;2924;51.458;7.046;2022-09-09T16:38:39;15.60;99.90
5796;DHT22;2924;51.458;7.046;2022-09-09T16:41:06;15.60;99.90
5796;DHT22;2924;51.458;7.046;2022-09-09T16:43:33;15.70;99.90
5796;DHT22;2924;51.458;7.046;2022-09-09T16:45:59;15.70;99.90
5796;DHT22;2924;51.458;7.046;2022-09-09T16:48:31;15.70;99.90
5796;DHT22;2924;51.458;7.046;2022-09-09T16:51:05;15.80;99.90
5796;DHT22;2924;51.458;7.046;2022-09-09T16:53:32;15.80;99.90
5796;DHT22;2924;51.458;7.046;2022-09-09T16:56:04;15.80;99.90
5796;DHT22;2924;51.458;7.046;2022-09-09T16:58:30;15.90;99.90
5796;DHT22;2924;51.458;7.046;2022-09-09T17:01:02;15.80;99.90
5796;DHT22;2924;51.458;7.046;2022-09-09T17:03:29;15.80;99.90
5796;DHT22;2924;51.458;7.046;2022-09-09T17:05:55;15.80;99.90
5796;DHT22;2924;51.458;7.046;2022-09-09T17:08:23;15.70;99.90
5796;DHT22;2924;51.458;7.046;2022-09-09T17:10:49;15.70;99.90
5796;DHT22;2924;51.458;7.046;2022-09-09T17:13:15;15.70;99.90
5796;DHT22;2924;51.458;7.046;2022-09-09T17:15:45;15.70;99.90
5796;DHT22;2924;51.458;7.046;2022-09-09T17:18:12;15.60;99.90
5796;DHT22;2924;51.458;7.046;2022-09-09T17:20:41;15.60;99.90
5796;DHT22;2924;51.458;7.046;2022-09-09T17:23:08;15.60;99.90
5796;DHT22;2924;51.458;7.046;2022-09-09T17:25:35;15.60;99.90
5796;DHT22;2924;51.458;7.046;2022-09-09T17:28:01;15.60;99.90
5796;DHT22;2924;51.458;7.046;2022-09-09T17:30:33;15.50;99.90
5796;DHT22;2924;51.458;7.046;2022-09-09T17:33:00;15.40;99.90
5796;DHT22;2924;51.458;7.046;2022-09-09T17:35:25;15.40;99.90
5796;DHT22;2924;51.458;7.046;2022-09-09T17:37:53;15.30;99.90
5796;DHT22;2924;51.458;7.046;2022-09-09T17:40:20;15.30;99.90
5796;DHT22;2924;51.458;7.046;2022-09-09T17:42:46;15.30;99.90
5796;DHT22;2924;51.458;7.046;2022-09-09T17:45:12;15.30;99.90
5796;DHT22;2924;51.458;7.046;2022-09-09T17:47:39;15.30;99.90
5796;DHT22;2924;51.458;7.046;2022-09-09T17:50:05;15.20;99.90
5796;DHT22;2924;51.458;7.046;2022-09-09T17:52:32;15.20;99.90
5796;DHT22;2924;51.458;7.046;2022-09-09T17:54:58;15.20;99.90
5796;DHT22;2924;51.458;7.046;2022-09-09T17:57:24;15.30;99.90
5796;DHT22;2924;51.458;7.046;2022-09-09T17:59:50;15.20;99.90
5796;DHT22;2924;51.458;7.046;2022-09-09T18:02:16;15.20;99.90
5796;DHT22;2924;51.458;7.046;2022-09-09T18:04:41;15.30;99.90
5796;DHT22;2924;51.458;7.046;2022-09-09T18:07:07;15.30;99.90
5796;DHT22;2924;51.458;7.046;2022-09-09T18:09:33;15.30;99.90
5796;DHT22;2924;51.458;7.046;2022-09-09T18:11:59;15.30;99.90
5796;DHT22;2924;51.458;7.046;2022-09-09T18:14:28;15.30;99.90
5796;DHT22;2924;51.458;7.046;2022-09-09T18:16:56;15.30;99.90
5796;DHT22;2924;51.458;7.046;2022-09-09T18:19:24;15.20;99.90
5796;DHT22;2924;51.458;7.046;2022-09-09T18:21:51;15.30;99.90
5796;DHT22;2924;51.458;7.046;2022-09-09T18:24:19;15.40;99.90
5796;DHT22;2924;51.458;7.046;2022-09-09T18:26:58;15.40;99.90
5796;DHT22;2924;51.458;7.046;2022-09-09T18:29:27;15.40;99.90
5796;DHT22;2924;51.458;7.046;2022-09-09T18:31:54;15.40;99.90
5796;DHT22;2924;51.458;7.046;2022-09-09T18:34:21;15.30;99.90
5796;DHT22;2924;51.458;7.046;2022-09-09T18:36:52;15.40;99.90
5796;DHT22;2924;51.458;7.046;2022-09-09T18:39:23;15.40;99.90
5796;DHT22;2924;51.458;7.046;2022-09-09T18:41:51;15.40;99.90